Terminal Aerodrome Forecast
Issued by NWS

Home | Current Version | Previous Version | Text Only | Print | Product List | Glossary On
Versions: 1 2 3 4 5 6 7 8 9 10 11 12 13
000
FTUS43 KIND 280500
TAFBMG
TAF
KBMG 280520Z 2806/0106 VRB03KT P6SM OVC200
     FM281500 10006KT P6SM OVC100
     FM281800 10007KT P6SM OVC060
     FM010300 10004KT 5SM -SHSN OVC025
     FM010500 12035KT 2SM -SN OVC010
      AMD LTD TO CLD VIS AND WIND TIL 281400=

USA.gov is the U.S. government's official web portal to all federal, state and local government web resources and services.